createdAt,value
2018-11-07T00:00:15.389Z,17.20
2018-11-07T00:02:42.926Z,16.02
2018-11-07T00:05:10.360Z,15.55
2018-11-07T00:07:37.791Z,23.70
2018-11-07T00:10:05.312Z,15.20
2018-11-07T00:12:32.717Z,45.17
2018-11-07T00:15:00.156Z,27.77
2018-11-07T00:17:28.271Z,17.05
2018-11-07T00:19:55.688Z,19.42
2018-11-07T00:22:23.180Z,18.17
2018-11-07T00:24:50.633Z,19.30
2018-11-07T00:27:18.069Z,22.37
2018-11-07T00:29:45.509Z,17.27
2018-11-07T00:32:12.946Z,18.35
2018-11-07T00:34:40.366Z,17.40
2018-11-07T00:37:07.825Z,17.83
2018-11-07T00:39:35.287Z,31.87
2018-11-07T00:42:02.732Z,16.87
2018-11-07T00:44:30.196Z,17.87
2018-11-07T00:46:57.752Z,27.10
2018-11-07T00:49:25.252Z,26.83
2018-11-07T00:51:52.689Z,32.28
2018-11-07T00:54:20.126Z,24.10
2018-11-07T00:56:47.550Z,34.85
2018-11-07T00:59:15.004Z,76.65
2018-11-07T01:01:42.446Z,33.70
2018-11-07T01:04:09.941Z,23.75
2018-11-07T01:06:37.373Z,29.45
2018-11-07T01:09:04.905Z,22.45
2018-11-07T01:11:32.314Z,14.50
2018-11-07T01:13:59.785Z,13.10
2018-11-07T01:16:27.289Z,21.52
2018-11-07T01:18:54.663Z,14.18
2018-11-07T01:21:22.066Z,32.47
2018-11-07T01:23:49.504Z,54.08
2018-11-07T01:26:16.907Z,21.10
2018-11-07T01:28:44.361Z,19.33
2018-11-07T01:31:11.818Z,22.33
2018-11-07T01:33:39.278Z,19.58
2018-11-07T01:36:06.795Z,29.15
2018-11-07T01:38:34.189Z,18.58
2018-11-07T01:41:01.700Z,20.77
2018-11-07T01:43:29.110Z,15.27
2018-11-07T01:45:56.560Z,50.67
2018-11-07T01:48:24.045Z,32.83
2018-11-07T01:50:51.499Z,67.25
2018-11-07T01:53:18.923Z,37.58
2018-11-07T01:55:46.323Z,25.00
2018-11-07T01:58:13.761Z,28.75
2018-11-07T02:00:41.256Z,49.67
2018-11-07T02:03:08.722Z,20.52
2018-11-07T02:05:36.161Z,25.15
2018-11-07T02:08:03.654Z,16.02
2018-11-07T02:10:31.060Z,13.30
2018-11-07T02:12:58.589Z,20.17
2018-11-07T02:15:26.000Z,9.88
2018-11-07T02:17:53.399Z,15.95
2018-11-07T02:20:20.837Z,27.58
2018-11-07T02:22:48.232Z,28.12
2018-11-07T02:25:15.854Z,32.60
2018-11-07T02:27:43.398Z,39.15
2018-11-07T02:30:10.866Z,64.53
2018-11-07T02:32:38.379Z,27.95
2018-11-07T02:35:05.789Z,39.13
2018-11-07T02:37:33.218Z,78.70
2018-11-07T02:40:01.254Z,62.33
2018-11-07T02:42:28.683Z,62.17
2018-11-07T02:44:56.135Z,55.85
2018-11-07T02:47:23.538Z,41.90
2018-11-07T02:49:50.966Z,44.15
2018-11-07T02:52:18.474Z,48.30
2018-11-07T02:54:46.066Z,36.45
2018-11-07T02:57:13.464Z,23.40
2018-11-07T02:59:40.943Z,20.73
2018-11-07T03:02:08.355Z,14.48
2018-11-07T03:04:35.816Z,15.38
2018-11-07T03:07:03.254Z,20.98
2018-11-07T03:09:30.694Z,18.30
2018-11-07T03:11:58.262Z,13.90
2018-11-07T03:14:25.746Z,20.05
2018-11-07T03:16:53.292Z,11.82
2018-11-07T03:19:20.701Z,21.85
2018-11-07T03:21:48.184Z,16.40
2018-11-07T03:24:15.575Z,12.73
2018-11-07T03:26:43.294Z,15.88
2018-11-07T03:29:10.700Z,14.40
2018-11-07T03:31:38.176Z,15.63
2018-11-07T03:34:05.676Z,11.63
2018-11-07T03:36:33.198Z,18.40
2018-11-07T03:39:00.685Z,16.55
2018-11-07T03:41:28.124Z,13.13
2018-11-07T03:43:55.618Z,16.67
2018-11-07T03:46:23.050Z,13.85
2018-11-07T03:48:50.552Z,17.05
2018-11-07T03:51:18.786Z,22.52
2018-11-07T03:53:46.191Z,19.27
2018-11-07T03:56:13.706Z,16.62
2018-11-07T03:58:41.104Z,18.37
2018-11-07T04:01:08.613Z,22.20
2018-11-07T04:03:36.031Z,17.95
2018-11-07T04:06:03.529Z,18.70
2018-11-07T04:08:30.936Z,16.05
2018-11-07T04:10:58.362Z,17.10
2018-11-07T04:13:25.802Z,14.90
2018-11-07T04:15:53.243Z,14.73
2018-11-07T04:18:20.694Z,11.77
2018-11-07T04:20:48.130Z,27.87
2018-11-07T04:23:15.654Z,18.83
2018-11-07T04:25:43.146Z,15.15
2018-11-07T04:28:10.567Z,14.95
2018-11-07T04:30:38.009Z,12.85
2018-11-07T04:33:05.425Z,20.15
2018-11-07T04:35:32.939Z,21.60
2018-11-07T04:38:00.344Z,13.98
2018-11-07T04:40:28.118Z,17.62
2018-11-07T04:42:55.530Z,15.70
2018-11-07T04:45:23.044Z,15.60
2018-11-07T04:47:50.492Z,17.33
2018-11-07T04:50:18.067Z,19.55
2018-11-07T04:52:45.496Z,20.80
2018-11-07T04:55:12.924Z,21.10
2018-11-07T04:57:40.392Z,17.42
2018-11-07T05:00:07.878Z,24.10
2018-11-07T05:02:35.235Z,21.83
2018-11-07T05:05:02.699Z,26.48
2018-11-07T05:07:30.099Z,25.88
2018-11-07T05:09:57.528Z,26.00
2018-11-07T05:12:24.929Z,25.50
2018-11-07T05:14:52.374Z,22.02
2018-11-07T05:17:20.405Z,21.70
2018-11-07T05:19:47.869Z,23.80
2018-11-07T05:22:15.358Z,22.02
2018-11-07T05:24:43.028Z,23.87
2018-11-07T05:27:10.493Z,30.62
2018-11-07T05:29:37.895Z,18.62
2018-11-07T05:32:05.440Z,30.75
2018-11-07T05:34:32.793Z,24.87
2018-11-07T05:37:00.238Z,25.83
2018-11-07T05:39:27.858Z,24.02
2018-11-07T05:41:55.297Z,34.15
2018-11-07T05:44:22.761Z,32.40
2018-11-07T05:46:50.874Z,16.45
2018-11-07T05:49:18.335Z,21.35
2018-11-07T05:51:46.682Z,17.90
2018-11-07T05:54:14.204Z,20.60
2018-11-07T05:56:41.672Z,23.12
2018-11-07T05:59:09.893Z,20.83
2018-11-07T06:01:37.348Z,19.65
2018-11-07T06:04:04.760Z,19.83
2018-11-07T06:06:32.255Z,16.90
2018-11-07T06:08:59.649Z,14.05
2018-11-07T06:11:27.061Z,13.32
2018-11-07T06:13:54.518Z,23.00
2018-11-07T06:16:22.132Z,24.55
2018-11-07T06:18:49.503Z,15.57
2018-11-07T06:21:17.262Z,18.50
2018-11-07T06:23:44.759Z,23.83
2018-11-07T06:26:12.192Z,25.92
2018-11-07T06:28:39.631Z,19.27
2018-11-07T06:31:07.051Z,18.85
2018-11-07T06:33:34.477Z,18.45
2018-11-07T06:36:01.954Z,20.75
2018-11-07T06:38:29.383Z,17.10
2018-11-07T06:40:56.848Z,13.20
2018-11-07T06:43:24.343Z,20.83
2018-11-07T06:45:51.781Z,16.67
2018-11-07T06:48:19.201Z,13.45
2018-11-07T06:50:46.634Z,13.73
2018-11-07T06:53:14.137Z,19.77
2018-11-07T06:55:41.635Z,21.30
2018-11-07T06:58:09.139Z,12.70
2018-11-07T07:00:36.793Z,20.65
2018-11-07T07:03:04.230Z,21.35
2018-11-07T07:05:31.689Z,13.55
2018-11-07T07:07:59.135Z,22.55
2018-11-07T07:10:26.606Z,14.82
2018-11-07T07:12:54.166Z,15.82
2018-11-07T07:15:21.634Z,19.17
2018-11-07T07:17:49.144Z,22.20
2018-11-07T07:20:16.572Z,24.15
2018-11-07T07:22:44.020Z,18.12
2018-11-07T07:25:11.495Z,23.52
2018-11-07T07:27:38.920Z,23.75
2018-11-07T07:30:06.476Z,22.30
2018-11-07T07:32:33.831Z,20.20
2018-11-07T07:35:01.296Z,21.70
2018-11-07T07:37:28.713Z,22.98
2018-11-07T07:39:56.156Z,19.08
2018-11-07T07:42:23.667Z,13.43
2018-11-07T07:44:51.100Z,17.58
2018-11-07T07:47:19.535Z,18.05
2018-11-07T07:49:47.098Z,14.73
2018-11-07T07:52:14.549Z,19.85
2018-11-07T07:54:42.010Z,18.17
2018-11-07T07:57:09.486Z,14.75
2018-11-07T07:59:36.964Z,16.95
2018-11-07T08:02:04.440Z,14.98
2018-11-07T08:04:31.875Z,11.77
2018-11-07T08:06:59.393Z,17.35
2018-11-07T08:09:26.811Z,19.10
2018-11-07T08:11:54.284Z,36.17
2018-11-07T08:14:21.945Z,33.33
2018-11-07T08:16:49.474Z,16.20
2018-11-07T08:19:17.131Z,38.33
2018-11-07T08:21:44.561Z,11.15
2018-11-07T08:24:12.081Z,17.98
2018-11-07T08:26:39.515Z,10.70
2018-11-07T08:29:07.000Z,16.62
2018-11-07T08:31:34.404Z,16.35
2018-11-07T08:34:01.839Z,12.27
2018-11-07T08:36:29.377Z,16.70
2018-11-07T08:38:56.799Z,7.20
2018-11-07T08:41:24.390Z,12.73
2018-11-07T08:43:51.956Z,11.80
2018-11-07T08:46:19.508Z,12.20
2018-11-07T08:48:46.894Z,9.32
2018-11-07T08:51:14.422Z,14.57
2018-11-07T08:53:41.838Z,16.58
2018-11-07T08:56:09.255Z,15.43
2018-11-07T08:58:36.713Z,16.37
2018-11-07T09:01:04.299Z,10.20
2018-11-07T09:03:31.772Z,14.32
2018-11-07T09:05:59.374Z,12.45
2018-11-07T09:08:26.871Z,8.23
2018-11-07T09:10:54.354Z,9.27
2018-11-07T09:13:22.110Z,9.82
2018-11-07T09:15:49.745Z,11.10
2018-11-07T09:18:17.168Z,8.75
2018-11-07T09:20:44.764Z,7.87
2018-11-07T09:23:12.192Z,8.55
2018-11-07T09:25:39.871Z,8.95
2018-11-07T09:28:07.313Z,10.18
2018-11-07T09:30:34.854Z,9.68
2018-11-07T09:33:02.297Z,9.48
2018-11-07T09:35:29.708Z,8.85
2018-11-07T09:37:57.163Z,7.87
2018-11-07T09:40:24.671Z,9.48
2018-11-07T09:42:52.100Z,11.88
2018-11-07T09:45:19.630Z,9.43
2018-11-07T09:47:47.083Z,7.15
2018-11-07T09:50:14.504Z,6.43
2018-11-07T09:52:41.979Z,8.90
2018-11-07T09:55:09.408Z,8.52
2018-11-07T09:57:36.831Z,8.20
2018-11-07T10:00:04.271Z,9.25
2018-11-07T10:02:31.778Z,10.45
2018-11-07T10:04:59.228Z,10.65
2018-11-07T10:07:26.841Z,10.23
2018-11-07T10:09:54.310Z,8.20
2018-11-07T10:12:21.748Z,10.05
2018-11-07T10:14:49.181Z,9.77
2018-11-07T10:17:16.881Z,9.77
2018-11-07T10:19:44.385Z,10.73
2018-11-07T10:22:11.965Z,11.90
2018-11-07T10:24:39.523Z,9.70
2018-11-07T10:27:07.011Z,11.18
2018-11-07T10:29:34.639Z,7.90
2018-11-07T10:32:02.053Z,7.68
2018-11-07T10:34:29.515Z,11.25
2018-11-07T10:36:56.936Z,10.55
2018-11-07T10:39:24.379Z,6.80
2018-11-07T10:41:51.816Z,8.77
2018-11-07T10:44:19.324Z,11.40
2018-11-07T10:46:46.690Z,15.90
2018-11-07T10:49:14.213Z,8.15
2018-11-07T10:51:41.804Z,9.38
2018-11-07T10:54:09.302Z,10.07
2018-11-07T10:56:36.824Z,12.27
2018-11-07T10:59:04.942Z,13.62
2018-11-07T11:01:32.489Z,8.35
2018-11-07T11:03:59.936Z,10.25
2018-11-07T11:06:27.384Z,16.45
2018-11-07T11:08:55.573Z,11.15
2018-11-07T11:11:23.073Z,7.50
2018-11-07T11:13:50.525Z,9.52
2018-11-07T11:16:19.017Z,9.25
2018-11-07T11:18:46.600Z,15.13
2018-11-07T11:21:15.047Z,8.60
2018-11-07T11:23:42.533Z,9.07
2018-11-07T11:26:10.008Z,13.35
2018-11-07T11:28:37.744Z,11.73
2018-11-07T11:31:05.248Z,10.68
2018-11-07T11:33:32.761Z,9.25
2018-11-07T11:36:00.363Z,13.68
2018-11-07T11:38:27.950Z,9.13
2018-11-07T11:40:55.577Z,14.90
2018-11-07T11:43:23.010Z,12.88
2018-11-07T11:45:50.448Z,11.32
2018-11-07T11:48:17.950Z,11.20
2018-11-07T11:50:45.441Z,14.27
2018-11-07T11:53:12.897Z,12.63
2018-11-07T11:55:40.407Z,11.98
2018-11-07T11:58:07.883Z,13.55
2018-11-07T12:00:35.353Z,9.75
2018-11-07T12:03:02.864Z,10.65
2018-11-07T12:05:31.020Z,10.85
2018-11-07T12:07:58.430Z,13.65
2018-11-07T12:10:25.911Z,15.80
2018-11-07T12:12:53.449Z,13.45
2018-11-07T12:15:20.955Z,16.52
2018-11-07T12:17:48.339Z,16.08
2018-11-07T12:20:15.820Z,17.60
2018-11-07T12:22:43.283Z,15.45
2018-11-07T12:25:10.722Z,11.50
2018-11-07T12:27:38.160Z,11.05
2018-11-07T12:30:05.624Z,11.80
2018-11-07T12:32:33.077Z,13.95
2018-11-07T12:35:00.705Z,12.07
2018-11-07T12:37:28.718Z,12.55
2018-11-07T12:39:57.111Z,12.98
2018-11-07T12:42:24.579Z,10.55
2018-11-07T12:44:52.072Z,15.85
2018-11-07T12:47:20.487Z,13.62
2018-11-07T12:49:47.987Z,15.95
2018-11-07T12:52:15.425Z,14.35
2018-11-07T12:54:42.873Z,16.73
2018-11-07T12:57:10.403Z,13.18
2018-11-07T12:59:37.990Z,18.77
2018-11-07T13:02:06.352Z,14.55
2018-11-07T13:04:33.848Z,16.00
2018-11-07T13:07:01.403Z,11.30
2018-11-07T13:09:29.016Z,16.30
2018-11-07T13:11:56.630Z,12.37
2018-11-07T13:14:24.100Z,12.23
2018-11-07T13:16:51.812Z,18.02
2018-11-07T13:19:20.177Z,13.40
2018-11-07T13:21:48.446Z,15.93
2018-11-07T13:24:15.874Z,11.52
2018-11-07T13:26:43.486Z,13.88
2018-11-07T13:29:10.970Z,14.55
2018-11-07T13:31:38.494Z,12.45
2018-11-07T13:34:06.018Z,14.85
2018-11-07T13:36:33.559Z,18.40
2018-11-07T13:39:01.169Z,15.40
2018-11-07T13:41:28.403Z,10.40
2018-11-07T13:43:55.812Z,13.15
2018-11-07T13:46:24.718Z,11.65
2018-11-07T13:48:52.268Z,15.65
2018-11-07T13:51:19.780Z,11.50
2018-11-07T13:53:47.239Z,9.93
2018-11-07T13:56:14.698Z,12.93
2018-11-07T13:58:42.133Z,11.48
2018-11-07T14:01:09.595Z,11.18
2018-11-07T14:03:37.009Z,11.65
2018-11-07T14:06:04.847Z,17.15
2018-11-07T14:08:32.350Z,15.98
2018-11-07T14:10:59.929Z,13.68
2018-11-07T14:13:27.413Z,9.63
2018-11-07T14:15:55.054Z,8.23
2018-11-07T14:18:22.426Z,11.07
2018-11-07T14:20:49.970Z,10.85
2018-11-07T14:23:17.766Z,9.25
2018-11-07T14:25:45.177Z,10.48
2018-11-07T14:28:12.879Z,9.70
2018-11-07T14:30:40.214Z,10.05
2018-11-07T14:33:07.756Z,12.85
2018-11-07T14:35:35.256Z,11.85
2018-11-07T14:38:02.868Z,7.47
2018-11-07T14:40:30.337Z,10.73
2018-11-07T14:42:57.814Z,9.27
2018-11-07T14:45:25.243Z,11.00
2018-11-07T14:47:52.996Z,10.18
2018-11-07T14:50:20.484Z,11.90
2018-11-07T14:52:47.920Z,8.93
2018-11-07T14:55:15.541Z,14.07
2018-11-07T14:57:42.985Z,23.02
2018-11-07T15:00:10.514Z,9.40
2018-11-07T15:02:37.955Z,7.93
2018-11-07T15:05:05.368Z,9.30
2018-11-07T15:07:32.964Z,7.70
2018-11-07T15:10:00.371Z,9.65
2018-11-07T15:12:28.127Z,10.75
2018-11-07T15:14:55.764Z,12.27
2018-11-07T15:17:23.284Z,13.35
2018-11-07T15:19:50.622Z,11.07
2018-11-07T15:22:18.103Z,9.45
2018-11-07T15:24:45.571Z,9.68
2018-11-07T15:27:13.040Z,13.45
2018-11-07T15:29:40.472Z,16.20
2018-11-07T15:32:08.019Z,10.93
2018-11-07T15:34:35.478Z,10.48
2018-11-07T15:37:02.943Z,11.95
2018-11-07T15:39:30.389Z,10.20
2018-11-07T15:41:57.856Z,14.40
2018-11-07T15:44:25.296Z,10.98
2018-11-07T15:46:52.969Z,11.18
2018-11-07T15:49:20.419Z,10.02
2018-11-07T15:51:47.901Z,9.40
2018-11-07T15:54:15.339Z,11.23
2018-11-07T15:56:42.795Z,8.85
2018-11-07T15:59:10.344Z,12.23
2018-11-07T16:01:37.829Z,9.77
2018-11-07T16:04:05.359Z,10.15
2018-11-07T16:06:33.790Z,13.20
2018-11-07T16:09:01.229Z,11.63
2018-11-07T16:11:28.682Z,13.15
2018-11-07T16:13:56.114Z,18.35
2018-11-07T16:16:23.551Z,14.98
2018-11-07T16:18:50.976Z,12.43
2018-11-07T16:21:18.422Z,9.88
2018-11-07T16:23:46.597Z,13.95
2018-11-07T16:26:13.998Z,14.68
2018-11-07T16:28:41.454Z,15.35
2018-11-07T16:31:08.917Z,12.48
2018-11-07T16:33:36.492Z,10.85
2018-11-07T16:36:03.958Z,16.98
2018-11-07T16:38:31.396Z,12.82
2018-11-07T16:40:58.896Z,11.95
2018-11-07T16:43:26.796Z,10.55
2018-11-07T16:45:54.289Z,15.30
2018-11-07T16:48:21.849Z,14.00
2018-11-07T16:50:49.624Z,12.60
2018-11-07T16:53:17.156Z,13.35
2018-11-07T16:55:44.557Z,17.45
2018-11-07T16:58:12.293Z,13.05
2018-11-07T17:00:39.716Z,11.68
2018-11-07T17:03:07.230Z,12.32
2018-11-07T17:05:34.748Z,13.80
2018-11-07T17:08:02.321Z,12.63
2018-11-07T17:10:30.149Z,17.25
2018-11-07T17:12:57.568Z,12.85
2018-11-07T17:15:24.988Z,15.32
2018-11-07T17:17:52.461Z,11.68
2018-11-07T17:20:19.993Z,16.85
2018-11-07T17:22:49.105Z,10.40
2018-11-07T17:25:16.604Z,12.10
2018-11-07T17:27:44.170Z,11.43
2018-11-07T17:30:12.301Z,12.32
2018-11-07T17:32:40.143Z,15.15
2018-11-07T17:35:08.297Z,18.37
2018-11-07T17:37:35.763Z,12.95
2018-11-07T17:40:03.216Z,18.05
2018-11-07T17:42:30.724Z,16.17
2018-11-07T17:44:58.283Z,20.35
2018-11-07T17:47:26.563Z,17.58
2018-11-07T17:49:53.988Z,16.37
2018-11-07T17:52:21.444Z,22.17
2018-11-07T17:54:49.043Z,16.60
2018-11-07T17:57:16.495Z,22.58
2018-11-07T17:59:43.991Z,16.83
2018-11-07T18:02:11.647Z,16.50
2018-11-07T18:04:39.168Z,21.65
2018-11-07T18:07:06.802Z,19.17
2018-11-07T18:09:35.011Z,16.02
2018-11-07T18:12:02.711Z,18.15
2018-11-07T18:14:30.171Z,18.33
2018-11-07T18:16:57.589Z,27.08
2018-11-07T18:19:25.281Z,21.60
2018-11-07T18:21:52.696Z,24.00
2018-11-07T18:24:20.164Z,18.62
2018-11-07T18:26:47.629Z,19.90
2018-11-07T18:29:15.330Z,21.37
2018-11-07T18:31:42.778Z,17.55
2018-11-07T18:34:10.253Z,26.98
2018-11-07T18:36:37.734Z,20.00
2018-11-07T18:39:05.241Z,17.05
2018-11-07T18:41:32.759Z,16.55
2018-11-07T18:44:00.229Z,12.40
2018-11-07T18:46:27.780Z,14.75
2018-11-07T18:48:55.301Z,15.25
2018-11-07T18:51:22.765Z,20.95
2018-11-07T18:53:50.238Z,43.80
2018-11-07T18:56:17.958Z,56.65
2018-11-07T18:58:45.457Z,28.67
2018-11-07T19:01:12.967Z,22.83
2018-11-07T19:03:40.409Z,17.90
2018-11-07T19:06:08.042Z,51.88
2018-11-07T19:08:35.731Z,14.52
2018-11-07T19:11:03.197Z,18.35
2018-11-07T19:13:30.731Z,15.77
2018-11-07T19:15:58.245Z,13.90
2018-11-07T19:18:25.899Z,16.55
2018-11-07T19:20:53.411Z,18.58
2018-11-07T19:23:20.938Z,17.08
2018-11-07T19:25:49.204Z,16.58
2018-11-07T19:28:16.759Z,17.77
2018-11-07T19:30:44.282Z,16.90
2018-11-07T19:33:11.894Z,15.30
2018-11-07T19:35:39.311Z,15.00
2018-11-07T19:38:06.763Z,15.85
2018-11-07T19:40:34.223Z,16.33
2018-11-07T19:43:01.673Z,14.93
2018-11-07T19:45:29.103Z,16.27
2018-11-07T19:47:56.729Z,11.25
2018-11-07T19:50:24.154Z,13.90
2018-11-07T19:52:51.605Z,13.27
2018-11-07T19:55:19.274Z,18.58
2018-11-07T19:57:46.615Z,15.27
2018-11-07T20:00:14.686Z,11.00
2018-11-07T20:02:42.242Z,19.23
2018-11-07T20:05:09.802Z,12.82
2018-11-07T20:07:37.305Z,12.10
2018-11-07T20:10:04.882Z,12.15
2018-11-07T20:12:32.307Z,14.63
2018-11-07T20:14:59.968Z,16.20
2018-11-07T20:17:27.623Z,16.08
2018-11-07T20:19:55.540Z,27.92
2018-11-07T20:22:23.027Z,15.77
2018-11-07T20:24:50.486Z,15.90
2018-11-07T20:27:17.910Z,14.77
2018-11-07T20:29:45.327Z,15.73
2018-11-07T20:32:12.789Z,16.37
2018-11-07T20:34:40.501Z,14.82
2018-11-07T20:37:08.227Z,13.82
2018-11-07T20:39:35.667Z,14.65
2018-11-07T20:42:03.153Z,20.95
2018-11-07T20:44:30.615Z,22.45
2018-11-07T20:46:58.212Z,18.67
2018-11-07T20:49:25.748Z,15.88
2018-11-07T20:51:53.231Z,18.17
2018-11-07T20:54:20.773Z,20.40
2018-11-07T20:56:48.207Z,19.85
2018-11-07T20:59:15.841Z,15.77
2018-11-07T21:01:44.660Z,17.77
2018-11-07T21:04:12.175Z,16.12
2018-11-07T21:06:39.640Z,17.90
2018-11-07T21:09:07.119Z,13.52
2018-11-07T21:11:34.647Z,21.80
2018-11-07T21:14:02.181Z,23.58
2018-11-07T21:16:29.706Z,18.48
2018-11-07T21:18:57.155Z,17.40
2018-11-07T21:21:24.611Z,15.73
2018-11-07T21:23:52.082Z,19.30
2018-11-07T21:26:19.547Z,15.77
2018-11-07T21:28:47.031Z,21.40
2018-11-07T21:31:14.563Z,20.67
2018-11-07T21:33:41.980Z,20.12
2018-11-07T21:36:09.475Z,18.35
2018-11-07T21:38:36.950Z,18.20
2018-11-07T21:41:04.585Z,18.55
2018-11-07T21:43:32.186Z,19.58
2018-11-07T21:45:59.704Z,17.08
2018-11-07T21:48:28.236Z,14.32
2018-11-07T21:50:55.704Z,19.52
2018-11-07T21:53:23.591Z,15.18
2018-11-07T21:55:51.180Z,22.35
2018-11-07T21:58:18.647Z,14.13
2018-11-07T22:00:46.111Z,17.98
2018-11-07T22:03:13.547Z,20.23
2018-11-07T22:05:41.039Z,16.87
2018-11-07T22:08:08.506Z,16.83
2018-11-07T22:10:35.955Z,18.83
2018-11-07T22:13:03.519Z,14.63
2018-11-07T22:15:30.870Z,15.65
2018-11-07T22:17:58.315Z,17.70
2018-11-07T22:20:26.041Z,14.75
2018-11-07T22:22:53.538Z,15.07
2018-11-07T22:25:20.985Z,13.10
2018-11-07T22:27:48.523Z,15.63
2018-11-07T22:30:15.966Z,12.73
2018-11-07T22:32:43.543Z,9.93
2018-11-07T22:35:10.958Z,13.60
2018-11-07T22:37:38.436Z,12.90
2018-11-07T22:40:05.893Z,12.15
2018-11-07T22:42:33.306Z,11.25
2018-11-07T22:45:00.720Z,7.97
2018-11-07T22:47:28.876Z,13.27
2018-11-07T22:49:56.431Z,10.80
2018-11-07T22:52:23.852Z,10.32
2018-11-07T22:54:51.325Z,12.93
2018-11-07T22:57:19.191Z,11.32
2018-11-07T22:59:47.466Z,11.20
2018-11-07T23:02:14.853Z,9.60
2018-11-07T23:04:42.292Z,10.30
2018-11-07T23:07:09.735Z,10.60
2018-11-07T23:09:37.134Z,8.55
2018-11-07T23:12:04.611Z,8.13
2018-11-07T23:14:32.054Z,10.25
2018-11-07T23:16:59.498Z,9.45
2018-11-07T23:19:27.539Z,6.57
2018-11-07T23:21:54.966Z,6.60
2018-11-07T23:24:22.368Z,10.20
2018-11-07T23:26:49.821Z,5.30
2018-11-07T23:29:17.430Z,3.62
2018-11-07T23:31:44.891Z,3.92
2018-11-07T23:34:12.323Z,4.28
2018-11-07T23:36:39.856Z,4.05
2018-11-07T23:39:07.311Z,3.78
2018-11-07T23:41:34.708Z,3.00
2018-11-07T23:44:02.181Z,3.55
2018-11-07T23:46:29.583Z,2.90
2018-11-07T23:48:57.013Z,3.55
2018-11-07T23:51:24.441Z,3.35
2018-11-07T23:53:51.912Z,4.03
2018-11-07T23:56:19.368Z,3.37
2018-11-07T23:58:46.793Z,3.30
